createdAt,value
2022-09-26T00:00:03.337Z,9.71
2022-09-26T00:00:44.185Z,9.71
2022-09-26T00:01:16.765Z,9.68
2022-09-26T00:01:48.451Z,9.70
2022-09-26T00:02:20.070Z,9.72
2022-09-26T00:02:51.944Z,9.72
2022-09-26T00:03:23.467Z,9.74
2022-09-26T00:03:57.814Z,9.78
2022-09-26T00:04:32.842Z,9.81
2022-09-26T00:05:04.799Z,9.83
2022-09-26T00:05:37.474Z,9.76
2022-09-26T00:06:09.336Z,9.78
2022-09-26T00:06:40.827Z,9.78
2022-09-26T00:07:12.418Z,9.76
2022-09-26T00:07:44.211Z,9.74
2022-09-26T00:08:15.778Z,9.77
2022-09-26T00:08:48.399Z,9.78
2022-09-26T00:09:21.004Z,9.76
2022-09-26T00:09:53.991Z,9.81
2022-09-26T00:10:25.516Z,9.81
2022-09-26T00:10:58.440Z,9.84
2022-09-26T00:11:32.292Z,9.75
2022-09-26T00:12:04.301Z,9.83
2022-09-26T00:12:35.825Z,9.81
2022-09-26T00:13:07.642Z,9.79
2022-09-26T00:13:40.983Z,9.81
2022-09-26T00:14:17.097Z,9.84
2022-09-26T00:14:48.646Z,9.82
2022-09-26T00:15:20.163Z,9.81
2022-09-26T00:15:52.015Z,9.78
2022-09-26T00:16:24.364Z,9.79
2022-09-26T00:16:56.535Z,9.81
2022-09-26T00:17:28.097Z,9.82
2022-09-26T00:17:59.593Z,9.83
2022-09-26T00:18:31.138Z,9.86
2022-09-26T00:19:03.612Z,9.85
2022-09-26T00:19:35.124Z,9.86
2022-09-26T00:20:07.060Z,9.96
2022-09-26T00:20:38.608Z,9.96
2022-09-26T00:21:13.004Z,9.90
2022-09-26T00:21:44.733Z,9.94
2022-09-26T00:22:16.348Z,9.96
2022-09-26T00:22:47.828Z,9.96
2022-09-26T00:23:19.574Z,9.94
2022-09-26T00:23:51.372Z,9.95
2022-09-26T00:24:22.851Z,9.95
2022-09-26T00:24:54.336Z,9.96
2022-09-26T00:25:26.998Z,9.95
2022-09-26T00:25:59.021Z,9.94
2022-09-26T00:26:34.670Z,10.04
2022-09-26T00:27:06.184Z,10.01
2022-09-26T00:27:37.689Z,10.01
2022-09-26T00:28:09.314Z,10.02
2022-09-26T00:28:41.188Z,10.00
2022-09-26T00:29:13.521Z,10.04
2022-09-26T00:29:45.535Z,9.99
2022-09-26T00:30:17.090Z,10.00
2022-09-26T00:30:48.697Z,10.00
2022-09-26T00:31:24.815Z,10.03
2022-09-26T00:31:56.542Z,10.02
2022-09-26T00:32:28.179Z,10.02
2022-09-26T00:32:59.656Z,10.04
2022-09-26T00:33:31.407Z,10.03
2022-09-26T00:34:03.341Z,10.02
2022-09-26T00:34:34.829Z,10.03
2022-09-26T00:35:07.002Z,10.07
2022-09-26T00:35:39.300Z,10.10
2022-09-26T00:36:11.010Z,10.08
2022-09-26T00:36:42.904Z,10.10
2022-09-26T00:37:14.416Z,10.11
2022-09-26T00:37:46.071Z,10.09
2022-09-26T00:38:18.650Z,10.04
2022-09-26T00:38:50.272Z,10.05
2022-09-26T00:39:21.784Z,10.03
2022-09-26T00:39:53.269Z,10.06
2022-09-26T00:40:27.181Z,10.09
2022-09-26T00:40:58.832Z,10.12
2022-09-26T00:41:30.385Z,10.10
2022-09-26T00:42:01.952Z,10.17
2022-09-26T00:42:34.590Z,10.15
2022-09-26T00:43:28.039Z,10.14
2022-09-26T00:44:01.078Z,10.18
2022-09-26T00:44:44.912Z,10.19
2022-09-26T00:45:17.191Z,10.13
2022-09-26T00:45:48.754Z,10.14
2022-09-26T00:46:33.009Z,10.12
2022-09-26T00:47:07.740Z,10.13
2022-09-26T00:47:42.903Z,10.15
2022-09-26T00:48:14.402Z,10.15
2022-09-26T00:48:48.624Z,10.18
2022-09-26T00:49:29.403Z,10.11
2022-09-26T00:50:08.373Z,10.13
2022-09-26T00:50:41.409Z,10.24
2022-09-26T00:51:13.037Z,10.20
2022-09-26T00:51:49.159Z,10.20
2022-09-26T00:52:34.030Z,10.14
2022-09-26T00:53:19.417Z,10.13
2022-09-26T00:53:53.106Z,10.13
2022-09-26T00:54:25.212Z,10.13
2022-09-26T00:54:59.232Z,10.10
2022-09-26T00:55:38.891Z,10.16
2022-09-26T00:56:30.306Z,10.19
2022-09-26T00:57:06.623Z,10.19
2022-09-26T00:57:43.677Z,10.16
2022-09-26T00:58:20.046Z,10.13
2022-09-26T00:58:54.680Z,10.15
2022-09-26T00:59:30.544Z,10.15
2022-09-26T01:00:06.950Z,10.17
2022-09-26T01:00:42.222Z,10.17
2022-09-26T01:01:14.761Z,10.19
2022-09-26T01:01:46.603Z,10.16
2022-09-26T01:02:18.965Z,10.27
2022-09-26T01:02:51.479Z,10.20
2022-09-26T01:03:23.645Z,10.25
2022-09-26T01:03:56.031Z,10.23
2022-09-26T01:04:29.562Z,10.23
2022-09-26T01:05:02.119Z,10.23
2022-09-26T01:05:35.246Z,10.20
2022-09-26T01:06:07.549Z,10.18
2022-09-26T01:06:39.574Z,10.18
2022-09-26T01:07:16.053Z,10.18
2022-09-26T01:07:48.377Z,10.20
2022-09-26T01:08:23.138Z,10.19
2022-09-26T01:09:01.228Z,10.23
2022-09-26T01:09:33.530Z,10.20
2022-09-26T01:10:06.237Z,10.20
2022-09-26T01:10:38.083Z,10.23
2022-09-26T01:11:17.202Z,10.26
2022-09-26T01:11:49.666Z,10.20
2022-09-26T01:12:24.598Z,10.30
2022-09-26T01:12:57.764Z,10.35
2022-09-26T01:13:31.550Z,10.25
2022-09-26T01:14:03.801Z,10.26
2022-09-26T01:14:35.774Z,10.23
2022-09-26T01:15:09.119Z,10.25
2022-09-26T01:15:40.718Z,10.22
2022-09-26T01:16:12.545Z,10.27
2022-09-26T01:16:46.856Z,10.21
2022-09-26T01:17:18.585Z,10.27
2022-09-26T01:17:50.423Z,10.30
2022-09-26T01:18:22.219Z,10.24
2022-09-26T01:18:53.882Z,10.24
2022-09-26T01:19:46.264Z,10.25
2022-09-26T01:20:26.803Z,10.32
2022-09-26T01:21:14.720Z,10.26
2022-09-26T01:22:08.469Z,10.24
2022-09-26T01:23:04.476Z,10.25
2022-09-26T01:23:41.953Z,10.25
2022-09-26T01:24:36.250Z,10.26
2022-09-26T01:25:16.420Z,10.17
2022-09-26T01:26:33.032Z,10.23
2022-09-26T01:27:34.833Z,10.20
2022-09-26T01:28:21.040Z,10.26
2022-09-26T01:29:11.195Z,10.24
2022-09-26T01:29:51.476Z,10.36
2022-09-26T01:30:28.395Z,10.31
2022-09-26T01:31:20.869Z,10.28
2022-09-26T01:32:13.781Z,10.27
2022-09-26T01:32:51.437Z,10.29
2022-09-26T01:33:31.673Z,10.29
2022-09-26T01:34:17.267Z,10.27
2022-09-26T01:35:13.445Z,10.26
2022-09-26T01:36:07.800Z,10.30
2022-09-26T01:36:45.623Z,10.34
2022-09-26T01:39:43.278Z,10.38
2022-09-26T01:40:31.855Z,10.39
2022-09-26T01:41:32.972Z,10.33
2022-09-26T01:42:09.003Z,10.29
2022-09-26T01:43:00.031Z,10.26
2022-09-26T01:43:38.223Z,10.16
2022-09-26T01:44:16.106Z,10.21
2022-09-26T01:44:53.830Z,10.18
2022-09-26T01:45:33.562Z,10.13
2022-09-26T01:46:21.411Z,10.17
2022-09-26T01:47:05.363Z,10.18
2022-09-26T01:47:42.655Z,10.13
2022-09-26T01:48:20.030Z,10.14
2022-09-26T01:49:01.846Z,10.13
2022-09-26T01:49:34.319Z,10.10
2022-09-26T01:50:24.158Z,10.07
2022-09-26T01:50:59.500Z,10.11
2022-09-26T01:51:40.242Z,10.11
2022-09-26T01:52:24.448Z,10.15
2022-09-26T01:52:58.816Z,10.15
2022-09-26T01:53:43.878Z,10.10
2022-09-26T01:54:22.812Z,10.12
2022-09-26T01:55:14.669Z,10.12
2022-09-26T01:55:51.362Z,10.13
2022-09-26T01:57:04.726Z,10.03
2022-09-26T01:57:41.468Z,10.08
2022-09-26T01:58:18.261Z,10.04
2022-09-26T01:58:58.987Z,10.04
2022-09-26T01:59:36.468Z,10.04
2022-09-26T02:00:12.524Z,10.12
2022-09-26T02:00:48.246Z,10.12
2022-09-26T02:01:23.499Z,10.12
2022-09-26T02:01:59.087Z,10.09
2022-09-26T02:02:34.854Z,10.08
2022-09-26T02:03:11.414Z,10.10
2022-09-26T02:03:46.627Z,10.05
2022-09-26T02:04:22.389Z,10.08
2022-09-26T02:05:04.662Z,10.05
2022-09-26T02:05:40.334Z,10.04
2022-09-26T02:06:18.885Z,10.02
2022-09-26T02:07:00.519Z,10.01
2022-09-26T02:07:41.418Z,10.01
2022-09-26T02:08:20.076Z,9.99
2022-09-26T02:09:00.156Z,10.03
2022-09-26T02:09:39.555Z,10.08
2022-09-26T02:10:19.004Z,10.03
2022-09-26T02:10:53.800Z,10.04
2022-09-26T02:11:27.695Z,9.99
2022-09-26T02:12:02.127Z,10.01
2022-09-26T02:12:39.526Z,9.98
2022-09-26T02:13:23.669Z,10.02
2022-09-26T02:14:04.719Z,10.00
2022-09-26T02:14:36.785Z,10.02
2022-09-26T02:15:11.934Z,10.06
2022-09-26T02:15:44.753Z,10.02
2022-09-26T02:16:21.119Z,10.01
2022-09-26T02:16:56.064Z,10.01
2022-09-26T02:17:40.287Z,10.01
2022-09-26T02:18:30.804Z,10.01
2022-09-26T02:19:32.992Z,10.00
2022-09-26T02:20:16.874Z,9.98
2022-09-26T02:20:55.815Z,9.97
2022-09-26T02:21:27.403Z,9.96
2022-09-26T02:22:00.146Z,9.95
2022-09-26T02:22:34.026Z,9.99
2022-09-26T02:23:05.748Z,10.01
2022-09-26T02:23:37.264Z,9.95
2022-09-26T02:24:08.937Z,9.94
2022-09-26T02:24:40.458Z,9.95
2022-09-26T02:25:11.997Z,9.94
2022-09-26T02:25:43.666Z,9.91
2022-09-26T02:26:15.572Z,9.95
2022-09-26T02:26:47.080Z,9.91
2022-09-26T02:27:18.629Z,9.93
2022-09-26T02:27:50.250Z,9.93
2022-09-26T02:28:22.261Z,9.93
2022-09-26T02:28:53.871Z,9.91
2022-09-26T02:29:25.964Z,9.93
2022-09-26T02:29:58.643Z,9.96
2022-09-26T02:30:31.469Z,9.95
2022-09-26T02:31:08.489Z,9.97
2022-09-26T02:31:50.579Z,9.94
2022-09-26T02:32:29.630Z,9.99
2022-09-26T02:33:02.234Z,10.01
2022-09-26T02:33:36.180Z,9.98
2022-09-26T02:34:07.988Z,9.96
2022-09-26T02:34:43.589Z,9.96
2022-09-26T02:35:34.426Z,9.95
2022-09-26T02:36:10.252Z,9.97
2022-09-26T02:36:42.001Z,10.00
2022-09-26T02:37:15.493Z,9.97
2022-09-26T02:37:47.314Z,9.99
2022-09-26T02:38:18.849Z,9.96
2022-09-26T02:38:57.896Z,9.96
2022-09-26T02:39:42.490Z,9.95
2022-09-26T02:40:42.282Z,9.92
2022-09-26T02:41:18.699Z,9.92
2022-09-26T02:42:07.622Z,9.91
2022-09-26T02:42:50.125Z,10.00
2022-09-26T02:44:06.079Z,9.94
2022-09-26T02:44:55.542Z,9.95
2022-09-26T02:45:48.054Z,9.95
2022-09-26T02:46:39.729Z,9.97
2022-09-26T02:47:50.977Z,9.96
2022-09-26T02:48:29.109Z,9.96
2022-09-26T02:49:32.764Z,9.98
2022-09-26T02:50:27.411Z,9.95
2022-09-26T02:51:22.487Z,9.91
2022-09-26T02:52:15.442Z,9.90
2022-09-26T02:53:09.200Z,9.88
2022-09-26T02:54:23.330Z,9.91
2022-09-26T02:55:00.722Z,9.90
2022-09-26T02:55:38.451Z,9.97
2022-09-26T02:56:17.743Z,9.90
2022-09-26T02:57:27.731Z,9.91
2022-09-26T02:58:13.574Z,9.92
2022-09-26T02:59:01.544Z,9.91
2022-09-26T02:59:47.260Z,9.90
2022-09-26T03:00:25.264Z,9.91
2022-09-26T03:01:20.726Z,9.93
2022-09-26T03:02:02.872Z,9.91
2022-09-26T03:03:03.565Z,9.91
2022-09-26T03:03:41.080Z,9.91
2022-09-26T03:04:24.144Z,9.94
2022-09-26T03:05:03.164Z,9.91
2022-09-26T03:05:36.416Z,9.92
2022-09-26T03:06:10.158Z,9.92
2022-09-26T03:06:47.149Z,9.95
2022-09-26T03:07:27.591Z,9.93
2022-09-26T03:08:09.330Z,9.92
2022-09-26T03:08:43.572Z,9.92
2022-09-26T03:09:15.803Z,9.94
2022-09-26T03:09:48.666Z,9.93
2022-09-26T03:10:20.637Z,9.92
2022-09-26T03:10:53.971Z,9.93
2022-09-26T03:11:27.198Z,9.92
2022-09-26T03:12:00.810Z,9.95
2022-09-26T03:12:33.993Z,9.96
2022-09-26T03:13:09.541Z,9.98
2022-09-26T03:13:42.521Z,9.93
2022-09-26T03:14:15.740Z,9.99
2022-09-26T03:14:48.196Z,10.00
2022-09-26T03:15:21.443Z,9.96
2022-09-26T03:15:55.070Z,10.05
2022-09-26T03:16:35.554Z,9.99
2022-09-26T03:17:08.913Z,9.97
2022-09-26T03:17:44.165Z,9.96
2022-09-26T03:18:21.074Z,9.96
2022-09-26T03:18:56.531Z,9.97
2022-09-26T03:19:32.570Z,10.01
2022-09-26T03:20:14.705Z,10.01
2022-09-26T03:20:46.836Z,10.02
2022-09-26T03:21:18.522Z,9.99
2022-09-26T03:21:50.122Z,10.01
2022-09-26T03:22:22.346Z,9.99
2022-09-26T03:22:54.954Z,10.00
2022-09-26T03:23:28.736Z,10.05
2022-09-26T03:24:05.971Z,10.06
2022-09-26T03:24:41.146Z,10.03
2022-09-26T03:25:18.520Z,9.98
2022-09-26T03:26:11.139Z,10.00
2022-09-26T03:26:51.671Z,10.06
2022-09-26T03:27:23.481Z,10.11
2022-09-26T03:27:55.619Z,10.08
2022-09-26T03:28:30.099Z,10.07
2022-09-26T03:29:04.836Z,10.06
2022-09-26T03:29:41.891Z,10.10
2022-09-26T03:30:21.177Z,10.10
2022-09-26T03:31:13.174Z,10.04
2022-09-26T03:31:55.337Z,10.06
2022-09-26T03:32:28.241Z,10.08
2022-09-26T03:33:03.148Z,10.09
2022-09-26T03:33:38.860Z,10.04
2022-09-26T03:34:10.615Z,10.03
2022-09-26T03:34:43.575Z,10.05
2022-09-26T03:35:16.305Z,10.05
2022-09-26T03:35:48.445Z,10.03
2022-09-26T03:36:22.497Z,10.05
2022-09-26T03:36:54.351Z,10.06
2022-09-26T03:37:26.822Z,10.04
2022-09-26T03:37:59.241Z,10.05
2022-09-26T03:38:31.473Z,10.04
2022-09-26T03:39:17.487Z,10.06
2022-09-26T03:40:04.757Z,10.12
2022-09-26T03:40:57.915Z,10.05
2022-09-26T03:41:58.376Z,10.12
2022-09-26T03:42:34.076Z,10.06
2022-09-26T03:43:05.708Z,10.10
2022-09-26T03:43:37.343Z,10.09
2022-09-26T03:44:08.964Z,10.04
2022-09-26T03:45:12.616Z,10.03
2022-09-26T03:46:06.745Z,10.09
2022-09-26T03:46:40.351Z,10.06
2022-09-26T03:47:15.190Z,10.11
2022-09-26T03:47:55.888Z,10.08
2022-09-26T03:48:27.470Z,10.08
2022-09-26T03:48:59.510Z,10.06
2022-09-26T03:49:31.208Z,10.04
2022-09-26T03:50:03.235Z,9.99
2022-09-26T03:50:35.013Z,10.05
2022-09-26T03:51:13.202Z,10.02
2022-09-26T03:51:45.863Z,10.03
2022-09-26T03:52:17.416Z,10.01
2022-09-26T03:52:49.158Z,9.99
2022-09-26T03:53:20.748Z,10.01
2022-09-26T03:53:52.552Z,10.00
2022-09-26T03:54:26.989Z,9.98
2022-09-26T03:54:58.582Z,9.96
2022-09-26T03:55:30.112Z,9.97
2022-09-26T03:56:13.092Z,10.02
2022-09-26T03:56:45.174Z,9.96
2022-09-26T03:57:17.556Z,9.97
2022-09-26T03:58:00.021Z,9.97
2022-09-26T03:58:37.389Z,9.91
2022-09-26T03:59:09.297Z,9.90
2022-09-26T03:59:41.671Z,9.96
2022-09-26T04:00:13.404Z,9.95
2022-09-26T04:00:53.635Z,9.94
2022-09-26T04:05:36.120Z,9.81
2022-09-26T04:06:09.693Z,9.85
2022-09-26T04:06:44.958Z,9.89
2022-09-26T04:07:17.140Z,9.88
2022-09-26T04:07:49.107Z,9.87
2022-09-26T04:08:20.686Z,9.88
2022-09-26T04:08:53.005Z,9.90
2022-09-26T04:09:25.024Z,9.87
2022-09-26T04:09:56.551Z,9.83
2022-09-26T04:10:28.080Z,9.83
2022-09-26T04:11:02.664Z,9.83
2022-09-26T04:11:34.239Z,9.79
2022-09-26T04:12:05.917Z,9.78
2022-09-26T04:12:40.391Z,9.76
2022-09-26T04:13:23.571Z,9.76
2022-09-26T04:14:03.842Z,9.72
2022-09-26T04:14:37.819Z,9.78
2022-09-26T04:15:09.973Z,9.76
2022-09-26T04:15:41.561Z,9.79
2022-09-26T04:16:17.367Z,9.75
2022-09-26T04:16:55.622Z,9.79
2022-09-26T04:17:47.377Z,9.79
2022-09-26T04:18:19.105Z,9.74
2022-09-26T04:18:55.787Z,9.71
2022-09-26T04:19:28.377Z,9.67
2022-09-26T04:19:59.969Z,9.69
2022-09-26T04:20:31.850Z,9.66
2022-09-26T04:21:09.872Z,9.65
2022-09-26T04:21:43.007Z,9.70
2022-09-26T04:22:14.560Z,9.66
2022-09-26T04:22:47.047Z,9.63
2022-09-26T04:23:18.698Z,9.64
2022-09-26T04:23:50.396Z,9.65
2022-09-26T04:24:23.141Z,9.58
2022-09-26T04:24:54.799Z,9.58
2022-09-26T04:25:27.392Z,9.57
2022-09-26T04:26:10.903Z,9.59
2022-09-26T04:26:43.767Z,9.57
2022-09-26T04:27:15.322Z,9.56
2022-09-26T04:27:49.047Z,9.56
2022-09-26T04:28:20.945Z,9.62
2022-09-26T04:28:55.330Z,9.58
2022-09-26T04:29:29.709Z,9.50
2022-09-26T04:30:24.315Z,9.57
2022-09-26T04:31:01.302Z,9.56
2022-09-26T04:31:35.639Z,9.58
2022-09-26T04:32:13.209Z,9.50
2022-09-26T04:33:04.679Z,9.52
2022-09-26T04:33:58.775Z,9.53
2022-09-26T04:34:30.444Z,9.54
2022-09-26T04:35:02.032Z,9.55
2022-09-26T04:35:33.914Z,9.53
2022-09-26T04:36:10.508Z,9.53
2022-09-26T04:36:43.782Z,9.54
2022-09-26T04:37:15.586Z,9.54
2022-09-26T04:37:47.525Z,9.50
2022-09-26T04:38:19.936Z,9.49
2022-09-26T04:38:51.585Z,9.46
2022-09-26T04:39:24.495Z,9.49
2022-09-26T04:39:57.073Z,9.47
2022-09-26T04:40:28.709Z,9.49
2022-09-26T04:41:17.008Z,9.45
2022-09-26T04:41:48.969Z,9.49
2022-09-26T04:42:20.563Z,9.49
2022-09-26T04:42:53.309Z,9.54
2022-09-26T04:43:24.894Z,9.52
2022-09-26T04:43:59.312Z,9.50
2022-09-26T04:44:30.866Z,9.54
2022-09-26T04:45:03.529Z,9.51
2022-09-26T04:45:35.267Z,9.49
2022-09-26T04:46:09.329Z,9.44
2022-09-26T04:46:42.285Z,9.36
2022-09-26T04:47:14.637Z,9.37
2022-09-26T04:48:06.077Z,9.37
2022-09-26T04:48:46.363Z,9.34
2022-09-26T04:49:23.674Z,9.37
2022-09-26T04:49:55.289Z,9.38
2022-09-26T04:50:27.271Z,9.37
2022-09-26T04:51:16.933Z,9.36
2022-09-26T04:51:49.743Z,9.37
2022-09-26T04:52:21.346Z,9.35
2022-09-26T04:52:53.155Z,9.44
2022-09-26T04:53:24.985Z,9.41
2022-09-26T04:54:08.668Z,9.41
2022-09-26T04:54:44.718Z,9.41
2022-09-26T04:55:16.809Z,9.42
2022-09-26T04:55:48.836Z,9.38
2022-09-26T04:56:24.952Z,9.36
2022-09-26T04:56:59.938Z,9.36
2022-09-26T04:57:31.862Z,9.36
2022-09-26T04:58:03.665Z,9.38
2022-09-26T04:58:40.174Z,9.35
2022-09-26T04:59:11.985Z,9.37
2022-09-26T04:59:57.963Z,9.38
2022-09-26T05:00:29.526Z,9.43
2022-09-26T05:01:14.938Z,9.43
2022-09-26T05:01:59.052Z,9.40
2022-09-26T05:02:40.227Z,9.36
2022-09-26T05:03:13.683Z,9.40
2022-09-26T05:03:45.650Z,9.40
2022-09-26T05:04:17.737Z,9.37
2022-09-26T05:04:49.735Z,9.39
2022-09-26T05:05:22.780Z,9.43
2022-09-26T05:05:54.482Z,9.36
2022-09-26T05:06:26.216Z,9.35
2022-09-26T05:06:59.277Z,9.36
2022-09-26T05:07:40.507Z,9.33
2022-09-26T05:08:14.061Z,9.25
2022-09-26T05:08:49.206Z,9.28
2022-09-26T05:09:25.632Z,9.31
2022-09-26T05:10:05.611Z,9.27
2022-09-26T05:10:43.605Z,9.27
2022-09-26T05:11:16.968Z,9.30
2022-09-26T05:11:48.824Z,9.27
2022-09-26T05:12:20.422Z,9.26
2022-09-26T05:12:59.182Z,9.32
2022-09-26T05:13:31.158Z,9.31
2022-09-26T05:14:04.054Z,9.29
2022-09-26T05:14:36.209Z,9.30
2022-09-26T05:15:10.093Z,9.29
2022-09-26T05:15:42.824Z,9.30
2022-09-26T05:16:15.156Z,9.30
2022-09-26T05:16:47.416Z,9.29
2022-09-26T05:17:21.563Z,9.27
2022-09-26T05:18:00.900Z,9.27
2022-09-26T05:18:36.065Z,9.36
2022-09-26T05:19:08.749Z,9.34
2022-09-26T05:19:45.425Z,9.40
2022-09-26T05:20:31.388Z,9.36
2022-09-26T05:21:07.462Z,9.32
2022-09-26T05:21:39.293Z,9.38
2022-09-26T05:22:11.180Z,9.37
2022-09-26T05:22:42.773Z,9.44
2022-09-26T05:23:43.711Z,9.46
2022-09-26T05:24:35.079Z,9.41
2022-09-26T05:25:25.673Z,9.36
2022-09-26T05:26:15.730Z,9.35
2022-09-26T05:26:51.783Z,9.33
2022-09-26T05:27:24.891Z,9.32
2022-09-26T05:27:56.694Z,9.32
2022-09-26T05:28:28.321Z,9.36
2022-09-26T05:29:08.338Z,9.35
2022-09-26T05:29:55.804Z,9.35
2022-09-26T05:30:31.259Z,9.31
2022-09-26T05:31:03.323Z,9.33
2022-09-26T05:31:37.589Z,9.32
2022-09-26T05:32:10.605Z,9.28
2022-09-26T05:32:46.065Z,9.29
2022-09-26T05:33:19.577Z,9.29
2022-09-26T05:33:51.698Z,9.34
2022-09-26T05:34:25.081Z,9.39
2022-09-26T05:34:57.767Z,9.33
2022-09-26T05:35:35.317Z,9.31
2022-09-26T05:36:08.415Z,9.31
2022-09-26T05:36:43.162Z,9.33
2022-09-26T05:37:15.377Z,9.33
2022-09-26T05:37:47.432Z,9.36
2022-09-26T05:38:19.291Z,9.31
2022-09-26T05:38:51.873Z,9.34
2022-09-26T05:39:42.794Z,9.31
2022-09-26T05:40:34.515Z,9.36
2022-09-26T05:41:06.347Z,9.39
2022-09-26T05:41:37.980Z,9.38
2022-09-26T05:42:09.702Z,9.44
2022-09-26T05:42:41.767Z,9.43
2022-09-26T05:43:14.072Z,9.41
2022-09-26T05:43:47.034Z,9.40
2022-09-26T05:44:20.092Z,9.48
2022-09-26T05:44:55.885Z,9.48
2022-09-26T05:45:28.116Z,9.50
2022-09-26T05:46:01.775Z,9.53
2022-09-26T05:46:39.256Z,9.49
2022-09-26T05:47:16.756Z,9.48
2022-09-26T05:47:48.767Z,9.48
2022-09-26T05:48:21.188Z,9.43
2022-09-26T05:48:53.199Z,9.48
2022-09-26T05:49:27.779Z,9.51
2022-09-26T05:50:00.185Z,9.51
2022-09-26T05:50:33.243Z,9.49
2022-09-26T05:51:13.182Z,9.49
2022-09-26T05:51:47.451Z,9.50
2022-09-26T05:52:23.016Z,9.54
2022-09-26T05:53:00.296Z,9.50
2022-09-26T05:53:33.143Z,9.48
2022-09-26T05:54:04.825Z,9.51
2022-09-26T05:54:39.537Z,9.52
2022-09-26T05:55:31.173Z,9.51
2022-09-26T05:56:21.926Z,9.50
2022-09-26T05:57:22.626Z,9.49
2022-09-26T05:57:59.000Z,9.53
2022-09-26T05:58:46.044Z,9.54
2022-09-26T05:59:17.547Z,9.52
2022-09-26T06:03:23.022Z,9.47
2022-09-26T06:04:10.516Z,9.52
2022-09-26T06:04:57.108Z,9.51
2022-09-26T06:05:47.336Z,9.50
2022-09-26T06:06:20.594Z,9.49
2022-09-26T06:06:58.027Z,9.49
2022-09-26T06:07:29.977Z,9.47
2022-09-26T06:08:01.814Z,9.50
2022-09-26T06:08:52.697Z,9.48
2022-09-26T06:09:29.787Z,9.49
2022-09-26T06:10:17.802Z,9.52
2022-09-26T06:11:00.032Z,9.51
2022-09-26T06:11:31.518Z,9.52
2022-09-26T06:12:03.273Z,9.51
2022-09-26T06:12:35.773Z,9.49
2022-09-26T06:13:07.808Z,9.52
2022-09-26T06:13:52.906Z,9.51
2022-09-26T06:14:26.185Z,9.51
2022-09-26T06:14:58.525Z,9.48
2022-09-26T06:15:30.124Z,9.46
2022-09-26T06:16:06.422Z,9.50
2022-09-26T06:16:38.086Z,9.52
2022-09-26T06:17:09.652Z,9.50
2022-09-26T06:17:42.101Z,9.51
2022-09-26T06:18:14.607Z,9.46
2022-09-26T06:18:47.262Z,9.45
2022-09-26T06:19:22.820Z,9.45
2022-09-26T06:19:54.900Z,9.45
2022-09-26T06:20:27.265Z,9.48
2022-09-26T06:21:04.287Z,9.46
2022-09-26T06:21:39.860Z,9.46
2022-09-26T06:22:15.994Z,9.45
2022-09-26T06:22:47.584Z,9.46
2022-09-26T06:23:19.356Z,9.46
2022-09-26T06:23:51.453Z,9.49
2022-09-26T06:24:24.846Z,9.45
2022-09-26T06:25:08.006Z,9.47
2022-09-26T06:25:39.555Z,9.48
2022-09-26T06:26:14.905Z,9.48
2022-09-26T06:26:46.656Z,9.46
2022-09-26T06:27:18.209Z,9.43
2022-09-26T06:27:59.656Z,9.48
2022-09-26T06:28:31.627Z,9.52
2022-09-26T06:29:03.649Z,9.57
2022-09-26T06:29:39.265Z,9.53
2022-09-26T06:30:11.625Z,9.51
2022-09-26T06:30:43.277Z,9.52
2022-09-26T06:31:32.806Z,9.54
2022-09-26T06:32:30.644Z,9.54
2022-09-26T06:33:23.198Z,9.63
2022-09-26T06:34:05.450Z,9.57
2022-09-26T06:34:46.257Z,9.58
2022-09-26T06:35:46.121Z,9.60
2022-09-26T06:36:24.583Z,9.56
2022-09-26T06:36:56.457Z,9.54
2022-09-26T06:37:28.445Z,9.53
2022-09-26T06:38:00.014Z,9.56
2022-09-26T06:38:31.595Z,9.54
2022-09-26T06:39:03.342Z,9.55
2022-09-26T06:39:38.825Z,9.55
2022-09-26T06:40:11.668Z,9.59
2022-09-26T06:40:43.325Z,9.59
2022-09-26T06:41:16.427Z,9.63
2022-09-26T06:41:48.036Z,9.62
2022-09-26T06:42:40.274Z,9.64
2022-09-26T06:43:31.339Z,9.62
2022-09-26T06:44:23.887Z,9.70
2022-09-26T06:45:13.055Z,9.64
2022-09-26T06:46:12.723Z,9.65
2022-09-26T06:47:13.433Z,9.69
2022-09-26T06:47:47.297Z,9.68
2022-09-26T06:48:42.112Z,9.66
2022-09-26T06:49:23.661Z,9.66
2022-09-26T06:50:12.253Z,9.69
2022-09-26T06:50:52.654Z,9.71
2022-09-26T06:51:24.409Z,9.72
2022-09-26T06:51:55.957Z,9.71
2022-09-26T06:52:30.000Z,9.73
2022-09-26T06:53:09.437Z,9.74
2022-09-26T06:53:41.291Z,9.74
2022-09-26T07:05:05.652Z,10.12
2022-09-26T07:05:45.243Z,10.13
2022-09-26T07:06:17.953Z,10.14
2022-09-26T07:06:49.656Z,10.07
2022-09-26T07:07:21.298Z,10.11
2022-09-26T07:07:53.391Z,10.16
2022-09-26T07:08:57.768Z,10.18
2022-09-26T07:09:26.772Z,10.29
2022-09-26T07:10:00.820Z,10.20
2022-09-26T07:10:44.103Z,10.27
2022-09-26T07:11:41.594Z,10.31
2022-09-26T07:12:18.117Z,10.33
2022-09-26T07:12:51.030Z,10.41
2022-09-26T07:13:22.626Z,10.40
2022-09-26T07:13:54.196Z,10.42
2022-09-26T07:14:25.925Z,10.40
2022-09-26T07:15:07.369Z,10.50
2022-09-26T07:15:40.142Z,10.53
2022-09-26T07:16:29.175Z,10.46
2022-09-26T07:17:04.752Z,10.46
2022-09-26T07:17:52.479Z,10.47
2022-09-26T07:18:37.975Z,10.49
2022-09-26T07:19:26.654Z,10.55
2022-09-26T07:20:17.638Z,10.47
2022-09-26T07:21:10.713Z,10.52
2022-09-26T07:22:00.805Z,10.50
2022-09-26T07:22:39.460Z,10.44
2022-09-26T07:23:11.481Z,10.48
2022-09-26T07:23:45.333Z,10.47
2022-09-26T07:24:17.754Z,10.49
2022-09-26T07:24:50.691Z,10.53
2022-09-26T07:25:22.258Z,10.50
2022-09-26T07:25:55.041Z,10.50
2022-09-26T07:26:26.670Z,10.53
2022-09-26T07:26:58.287Z,10.52
2022-09-26T07:27:30.576Z,10.57
2022-09-26T07:28:03.246Z,10.55
2022-09-26T07:28:55.058Z,10.53
2022-09-26T07:29:29.523Z,10.57
2022-09-26T07:30:01.077Z,10.56
2022-09-26T07:30:34.099Z,10.56
2022-09-26T07:31:13.992Z,10.56
2022-09-26T07:31:50.202Z,10.53
2022-09-26T07:32:34.781Z,10.54
2022-09-26T07:33:18.253Z,10.55
2022-09-26T07:33:52.912Z,10.51
2022-09-26T07:34:25.084Z,10.55
2022-09-26T07:34:59.271Z,10.55
2022-09-26T07:35:35.502Z,10.57
2022-09-26T07:36:08.561Z,10.47
2022-09-26T07:36:40.659Z,10.43
2022-09-26T07:37:13.557Z,10.47
2022-09-26T07:37:45.108Z,10.51
2022-09-26T07:38:16.761Z,10.52
2022-09-26T07:38:49.997Z,10.53
2022-09-26T07:39:23.324Z,10.47
2022-09-26T07:39:59.370Z,10.49
2022-09-26T07:40:33.827Z,10.48
2022-09-26T07:41:10.716Z,10.47
2022-09-26T07:41:46.903Z,10.44
2022-09-26T07:42:18.556Z,10.41
2022-09-26T07:43:15.377Z,10.47
2022-09-26T07:45:47.286Z,10.49
2022-09-26T07:46:37.767Z,10.41
2022-09-26T07:47:27.813Z,10.46
2022-09-26T07:48:18.357Z,10.40
2022-09-26T07:49:27.169Z,10.40
2022-09-26T07:50:16.744Z,10.38
2022-09-26T07:51:12.698Z,10.40
2022-09-26T07:51:54.164Z,10.40
2022-09-26T07:52:29.814Z,10.38
2022-09-26T07:53:21.348Z,10.40
2022-09-26T07:54:31.399Z,10.39
2022-09-26T07:55:25.480Z,10.37
2022-09-26T07:56:26.061Z,10.42
2022-09-26T07:57:19.438Z,10.32
2022-09-26T07:58:07.123Z,10.30
2022-09-26T07:58:57.084Z,10.31
2022-09-26T07:59:50.503Z,10.29
2022-09-26T08:00:51.197Z,10.32
2022-09-26T08:01:46.524Z,10.29
2022-09-26T08:02:36.173Z,10.26
2022-09-26T08:03:09.841Z,10.23
2022-09-26T08:03:44.552Z,10.25
2022-09-26T08:04:26.923Z,10.24
2022-09-26T08:05:01.173Z,10.20
2022-09-26T08:05:34.564Z,10.21
2022-09-26T08:06:07.114Z,10.28
2022-09-26T08:06:38.680Z,10.24
2022-09-26T08:07:12.175Z,10.23
2022-09-26T08:07:50.146Z,10.27
2022-09-26T08:08:41.412Z,10.26
2022-09-26T08:09:31.469Z,10.24
2022-09-26T08:10:35.982Z,10.27
2022-09-26T08:11:28.172Z,10.27
2022-09-26T08:12:15.042Z,10.29
2022-09-26T08:13:09.716Z,10.30
2022-09-26T08:13:54.101Z,10.26
2022-09-26T08:14:55.002Z,10.21
2022-09-26T08:15:33.974Z,10.23
2022-09-26T08:16:09.684Z,10.20
2022-09-26T08:16:45.732Z,10.22
2022-09-26T08:17:17.731Z,10.24
2022-09-26T08:17:49.298Z,10.23
2022-09-26T08:18:21.040Z,10.26
2022-09-26T08:18:53.900Z,10.21
2022-09-26T08:19:25.871Z,10.23
2022-09-26T08:19:57.554Z,10.18
2022-09-26T08:20:32.169Z,10.20
2022-09-26T08:21:07.381Z,10.19
2022-09-26T08:21:39.308Z,10.17
2022-09-26T08:22:11.765Z,10.16
2022-09-26T08:22:43.350Z,10.14
2022-09-26T08:23:17.876Z,10.12
2022-09-26T08:23:54.800Z,10.11
2022-09-26T08:24:49.663Z,10.17
2022-09-26T08:25:25.468Z,10.15
2022-09-26T08:26:03.896Z,10.18
2022-09-26T08:26:46.465Z,10.21
2022-09-26T08:27:23.113Z,10.17
2022-09-26T08:27:58.441Z,10.21
2022-09-26T08:28:31.564Z,10.15
2022-09-26T08:29:03.879Z,10.16
2022-09-26T08:29:35.486Z,10.15
2022-09-26T08:30:08.444Z,10.17
2022-09-26T08:30:40.828Z,10.21
2022-09-26T08:31:12.625Z,10.15
2022-09-26T08:31:45.982Z,10.20
2022-09-26T08:32:19.426Z,10.13
2022-09-26T08:32:54.768Z,10.19
2022-09-26T08:33:27.087Z,10.18
2022-09-26T08:33:58.725Z,10.18
2022-09-26T08:34:33.628Z,10.19